createdAt,value
2018-09-26T00:01:16.089Z,6.50
2018-09-26T00:04:01.604Z,6.40
2018-09-26T00:06:43.129Z,6.30
2018-09-26T00:09:24.028Z,6.30
2018-09-26T00:12:05.562Z,6.30
2018-09-26T00:14:46.300Z,6.30
2018-09-26T00:17:27.385Z,6.30
2018-09-26T00:20:08.573Z,6.30
2018-09-26T00:22:49.742Z,6.30
2018-09-26T00:25:30.801Z,6.40
2018-09-26T00:28:12.498Z,6.30
2018-09-26T00:30:54.342Z,6.20
2018-09-26T00:33:35.238Z,6.30
2018-09-26T00:36:16.254Z,6.20
2018-09-26T00:38:57.135Z,6.10
2018-09-26T00:41:38.316Z,6.10
2018-09-26T00:44:19.457Z,6.00
2018-09-26T00:47:00.636Z,6.00
2018-09-26T00:49:41.320Z,5.90
2018-09-26T00:52:22.912Z,5.90
2018-09-26T00:55:03.680Z,5.80
2018-09-26T00:57:45.132Z,5.90
2018-09-26T01:00:26.495Z,5.80
2018-09-26T01:03:07.688Z,5.70
2018-09-26T01:05:48.795Z,5.70
2018-09-26T01:08:29.397Z,5.80
2018-09-26T01:11:10.375Z,5.80
2018-09-26T01:13:51.104Z,5.80
2018-09-26T01:16:32.363Z,5.70
2018-09-26T01:19:13.398Z,5.60
2018-09-26T01:21:54.880Z,5.60
2018-09-26T01:24:35.658Z,5.50
2018-09-26T01:27:17.750Z,5.40
2018-09-26T01:29:58.580Z,5.30
2018-09-26T01:32:40.033Z,5.30
2018-09-26T01:35:21.413Z,5.40
2018-09-26T01:38:02.460Z,5.40
2018-09-26T01:40:43.878Z,5.40
2018-09-26T01:43:31.572Z,5.40
2018-09-26T01:46:12.376Z,3.90
2018-09-26T01:48:53.791Z,5.30
2018-09-26T01:51:34.953Z,5.20
2018-09-26T01:54:15.607Z,5.10
2018-09-26T01:56:56.649Z,5.00
2018-09-26T01:59:37.760Z,4.90
2018-09-26T02:02:18.937Z,5.00
2018-09-26T02:05:00.118Z,5.10
2018-09-26T02:07:40.953Z,5.10
2018-09-26T02:10:22.440Z,5.10
2018-09-26T02:13:04.029Z,5.10
2018-09-26T02:15:45.141Z,5.00
2018-09-26T02:18:26.320Z,4.90
2018-09-26T02:21:07.156Z,4.90
2018-09-26T02:23:48.044Z,5.00
2018-09-26T02:26:29.244Z,5.00
2018-09-26T02:29:10.011Z,5.10
2018-09-26T02:31:50.840Z,5.10
2018-09-26T02:34:32.062Z,5.10
2018-09-26T02:37:13.455Z,5.00
2018-09-26T02:39:54.932Z,5.10
2018-09-26T02:42:36.220Z,5.10
2018-09-26T02:45:17.665Z,4.90
2018-09-26T02:47:58.346Z,4.90
2018-09-26T02:50:39.500Z,4.80
2018-09-26T02:53:20.309Z,4.70
2018-09-26T02:56:01.360Z,4.70
2018-09-26T02:58:43.430Z,4.70
2018-09-26T03:01:24.670Z,4.80
2018-09-26T03:04:06.160Z,4.80
2018-09-26T03:06:46.996Z,4.90
2018-09-26T03:09:28.005Z,5.00
2018-09-26T03:12:08.655Z,5.00
2018-09-26T03:14:49.756Z,4.90
2018-09-26T03:17:30.909Z,4.80
2018-09-26T03:20:12.429Z,4.80
2018-09-26T03:22:53.053Z,4.80
2018-09-26T03:25:33.884Z,4.70
2018-09-26T03:28:14.633Z,4.70
2018-09-26T03:30:55.864Z,4.60
2018-09-26T03:33:37.143Z,4.60
2018-09-26T03:36:18.941Z,4.50
2018-09-26T03:39:00.103Z,4.70
2018-09-26T03:41:40.821Z,4.50
2018-09-26T03:44:21.964Z,4.50
2018-09-26T03:47:02.873Z,4.40
2018-09-26T03:49:43.849Z,4.40
2018-09-26T03:52:24.710Z,4.30
2018-09-26T03:55:06.357Z,4.40
2018-09-26T03:57:47.125Z,4.60
2018-09-26T04:00:28.308Z,4.50
2018-09-26T04:03:09.076Z,4.50
2018-09-26T04:05:50.257Z,4.40
2018-09-26T04:08:31.057Z,4.30
2018-09-26T04:11:12.033Z,4.30
2018-09-26T04:13:53.194Z,4.30
2018-09-26T04:16:34.373Z,4.30
2018-09-26T04:19:15.688Z,4.20
2018-09-26T04:21:57.140Z,4.10
2018-09-26T04:24:37.808Z,4.00
2018-09-26T04:27:18.652Z,3.90
2018-09-26T04:29:59.989Z,3.90
2018-09-26T04:32:41.196Z,3.90
2018-09-26T04:35:22.604Z,4.00
2018-09-26T04:38:04.065Z,4.00
2018-09-26T04:40:44.893Z,3.90
2018-09-26T04:43:26.453Z,3.80
2018-09-26T04:46:07.938Z,3.80
2018-09-26T04:48:49.351Z,3.80
2018-09-26T04:51:30.462Z,3.90
2018-09-26T04:54:11.485Z,4.00
2018-09-26T04:56:52.537Z,4.00
2018-09-26T04:59:33.592Z,3.90
2018-09-26T05:02:14.716Z,3.80
2018-09-26T05:04:55.453Z,3.70
2018-09-26T05:07:36.617Z,3.70
2018-09-26T05:10:18.148Z,3.70
2018-09-26T05:12:59.327Z,3.70
2018-09-26T05:15:40.076Z,3.70
2018-09-26T05:18:20.959Z,3.70
2018-09-26T05:21:02.108Z,3.80
2018-09-26T05:23:43.656Z,3.90
2018-09-26T05:26:24.537Z,3.90
2018-09-26T05:29:05.228Z,4.00
2018-09-26T05:31:45.876Z,4.00
2018-09-26T05:34:26.593Z,4.10
2018-09-26T05:37:08.002Z,4.20
2018-09-26T05:39:48.829Z,4.40
2018-09-26T05:42:29.503Z,4.60
2018-09-26T05:45:10.990Z,4.90
2018-09-26T05:47:52.024Z,5.20
2018-09-26T05:50:33.566Z,5.40
2018-09-26T05:53:14.479Z,5.60
2018-09-26T05:55:55.389Z,5.80
2018-09-26T05:58:36.496Z,6.00
2018-09-26T06:01:17.644Z,6.10
2018-09-26T06:03:58.844Z,6.10
2018-09-26T06:06:39.934Z,6.10
2018-09-26T06:09:21.293Z,6.20
2018-09-26T06:12:02.099Z,6.20
2018-09-26T06:14:43.278Z,6.40
2018-09-26T06:17:24.726Z,6.60
2018-09-26T06:20:05.864Z,6.70
2018-09-26T06:22:46.900Z,6.80
2018-09-26T06:25:27.526Z,6.80
2018-09-26T06:28:08.969Z,6.90
2018-09-26T06:30:50.121Z,7.10
2018-09-26T06:33:30.974Z,7.20
2018-09-26T06:36:12.341Z,7.40
2018-09-26T06:38:53.439Z,7.70
2018-09-26T06:41:34.184Z,8.00
2018-09-26T06:44:15.491Z,8.60
2018-09-26T06:46:56.280Z,9.80
2018-09-26T06:49:37.103Z,10.40
2018-09-26T06:52:18.288Z,10.60
2018-09-26T06:54:59.653Z,10.20
2018-09-26T06:57:41.129Z,9.90
2018-09-26T07:00:22.696Z,10.00
2018-09-26T07:03:03.998Z,10.00
2018-09-26T07:05:44.706Z,10.10
2018-09-26T07:08:26.208Z,10.30
2018-09-26T07:11:07.112Z,10.60
2018-09-26T07:13:48.121Z,10.60
2018-09-26T07:16:28.960Z,10.60
2018-09-26T07:19:10.188Z,10.60
2018-09-26T07:21:51.516Z,10.60
2018-09-26T07:24:32.382Z,10.70
2018-09-26T07:27:13.231Z,10.80
2018-09-26T07:29:53.757Z,11.50
2018-09-26T07:32:35.009Z,12.50
2018-09-26T07:35:16.474Z,12.90
2018-09-26T07:37:57.354Z,13.30
2018-09-26T07:40:38.483Z,14.40
2018-09-26T07:43:19.364Z,15.20
2018-09-26T07:46:00.310Z,16.20
2018-09-26T07:48:41.067Z,17.80
2018-09-26T07:51:22.211Z,20.50
2018-09-26T07:54:03.248Z,20.30
2018-09-26T07:56:44.274Z,20.80
2018-09-26T07:59:25.439Z,21.20
2018-09-26T08:02:06.294Z,21.80
2018-09-26T08:04:48.302Z,22.20
2018-09-26T08:07:29.262Z,22.50
2018-09-26T08:10:10.516Z,22.30
2018-09-26T08:12:51.633Z,21.60
2018-09-26T08:15:32.775Z,22.10
2018-09-26T08:18:13.609Z,23.10
2018-09-26T08:20:55.169Z,23.00
2018-09-26T08:23:36.176Z,23.40
2018-09-26T08:26:17.214Z,24.50
2018-09-26T08:28:58.530Z,24.80
2018-09-26T08:31:39.414Z,24.40
2018-09-26T08:34:20.297Z,24.10
2018-09-26T08:37:00.791Z,22.10
2018-09-26T08:39:41.192Z,22.20
2018-09-26T08:42:21.961Z,22.90
2018-09-26T08:45:04.062Z,23.10
2018-09-26T08:47:44.941Z,23.90
2018-09-26T08:50:25.873Z,24.20
2018-09-26T08:53:06.853Z,24.60
2018-09-26T08:55:47.321Z,24.30
2018-09-26T08:58:28.400Z,23.60
2018-09-26T09:01:13.911Z,23.00
2018-09-26T09:03:54.781Z,23.50
2018-09-26T09:06:35.458Z,23.30
2018-09-26T09:09:16.034Z,23.20
2018-09-26T09:11:56.779Z,22.90
2018-09-26T09:14:38.482Z,22.40
2018-09-26T09:17:19.202Z,22.60
2018-09-26T09:20:00.096Z,23.20
2018-09-26T09:22:40.653Z,23.80
2018-09-26T09:25:21.562Z,24.00
2018-09-26T09:28:02.526Z,24.70
2018-09-26T09:30:43.379Z,24.30
2018-09-26T09:33:23.939Z,24.80
2018-09-26T09:36:04.980Z,25.00
2018-09-26T09:38:45.687Z,24.30
2018-09-26T09:41:26.581Z,24.10
2018-09-26T09:44:08.076Z,25.40
2018-09-26T09:46:49.153Z,26.20
2018-09-26T09:49:30.081Z,27.00
2018-09-26T09:52:10.848Z,27.40
2018-09-26T09:54:51.664Z,27.40
2018-09-26T09:57:32.422Z,27.40
2018-09-26T10:00:12.884Z,27.20
2018-09-26T10:02:54.134Z,28.80
2018-09-26T10:05:34.833Z,27.80
2018-09-26T10:08:16.012Z,28.10
2018-09-26T10:10:57.244Z,28.40
2018-09-26T10:13:38.101Z,26.70
2018-09-26T10:16:18.980Z,25.50
2018-09-26T10:19:00.057Z,25.90
2018-09-26T10:21:41.760Z,26.00
2018-09-26T10:24:22.633Z,26.50
2018-09-26T10:27:03.191Z,26.40
2018-09-26T10:29:43.767Z,25.20
2018-09-26T10:32:24.491Z,25.10
2018-09-26T10:35:05.822Z,26.00
2018-09-26T10:37:46.304Z,27.10
2018-09-26T10:40:27.032Z,27.30
2018-09-26T10:43:07.910Z,25.90
2018-09-26T10:45:48.298Z,25.50
2018-09-26T10:48:28.776Z,26.10
2018-09-26T10:51:09.388Z,26.20
2018-09-26T10:53:50.637Z,25.50
2018-09-26T10:56:31.183Z,26.00
2018-09-26T10:59:11.800Z,26.10
2018-09-26T11:01:52.932Z,26.90
2018-09-26T11:04:33.985Z,26.30
2018-09-26T11:07:14.720Z,25.80
2018-09-26T11:09:55.419Z,26.00
2018-09-26T11:12:36.001Z,25.30
2018-09-26T11:15:17.462Z,25.20
2018-09-26T11:17:59.417Z,24.90
2018-09-26T11:20:40.303Z,24.20
2018-09-26T11:23:21.146Z,24.90
2018-09-26T11:26:02.253Z,26.70
2018-09-26T11:28:43.121Z,28.00
2018-09-26T11:31:24.178Z,28.00
2018-09-26T11:34:05.258Z,27.60
2018-09-26T11:36:46.065Z,27.30
2018-09-26T11:39:27.549Z,26.50
2018-09-26T11:42:08.056Z,26.70
2018-09-26T11:44:48.893Z,26.60
2018-09-26T11:47:30.062Z,26.20
2018-09-26T11:50:10.781Z,26.70
2018-09-26T11:52:52.955Z,27.30
2018-09-26T11:55:34.118Z,25.20
2018-09-26T11:58:15.089Z,24.80
2018-09-26T12:00:55.897Z,24.70
2018-09-26T12:03:36.244Z,24.30
2018-09-26T12:06:17.127Z,24.30
2018-09-26T12:08:58.054Z,24.00
2018-09-26T12:11:38.868Z,24.00
2018-09-26T12:14:20.165Z,24.50
2018-09-26T12:17:01.600Z,24.10
2018-09-26T12:19:42.557Z,24.50
2018-09-26T12:22:23.514Z,25.00
2018-09-26T12:25:04.119Z,24.90
2018-09-26T12:27:44.950Z,25.60
2018-09-26T12:30:26.417Z,25.40
2018-09-26T12:33:07.540Z,24.80
2018-09-26T12:35:48.617Z,24.00
2018-09-26T12:38:29.389Z,23.10
2018-09-26T12:41:10.293Z,22.90
2018-09-26T12:43:50.683Z,22.70
2018-09-26T12:46:31.074Z,22.40
2018-09-26T12:49:11.634Z,22.40
2018-09-26T12:51:53.018Z,23.20
2018-09-26T12:54:33.577Z,23.60
2018-09-26T12:57:14.208Z,23.80
2018-09-26T12:59:55.121Z,24.00
2018-09-26T13:02:36.457Z,25.00
2018-09-26T13:05:18.456Z,25.60
2018-09-26T13:07:59.366Z,26.40
2018-09-26T13:10:40.445Z,26.90
2018-09-26T13:13:21.317Z,26.40
2018-09-26T13:16:02.666Z,25.40
2018-09-26T13:18:43.533Z,24.50
2018-09-26T13:21:25.337Z,24.10
2018-09-26T13:24:06.622Z,24.30
2018-09-26T13:26:47.680Z,25.00
2018-09-26T13:29:28.651Z,25.70
2018-09-26T13:32:09.715Z,25.60
2018-09-26T13:34:50.997Z,25.50
2018-09-26T13:37:32.119Z,25.20
2018-09-26T13:40:13.253Z,24.90
2018-09-26T13:42:54.266Z,24.60
2018-09-26T13:45:34.990Z,23.90
2018-09-26T13:48:15.615Z,23.80
2018-09-26T13:50:56.727Z,23.90
2018-09-26T13:53:37.291Z,23.30
2018-09-26T13:56:17.936Z,22.50
2018-09-26T13:58:59.031Z,21.80
2018-09-26T14:01:40.096Z,21.60
2018-09-26T14:04:21.381Z,21.60
2018-09-26T14:07:02.904Z,21.70
2018-09-26T14:09:43.488Z,21.50
2018-09-26T14:12:24.403Z,21.20
2018-09-26T14:15:05.250Z,21.10
2018-09-26T14:17:46.070Z,21.20
2018-09-26T14:20:48.975Z,21.30
2018-09-26T14:23:29.869Z,21.50
2018-09-26T14:26:10.907Z,21.40
2018-09-26T14:28:52.293Z,21.40
2018-09-26T14:31:33.009Z,21.20
2018-09-26T14:34:13.757Z,21.30
2018-09-26T14:36:54.501Z,21.20
2018-09-26T14:39:35.379Z,20.90
2018-09-26T14:42:16.326Z,20.60
2018-09-26T14:44:57.052Z,20.20
2018-09-26T14:47:37.966Z,19.90
2018-09-26T14:50:19.048Z,19.80
2018-09-26T14:53:00.059Z,19.70
2018-09-26T14:55:40.957Z,19.60
2018-09-26T14:58:21.788Z,19.40
2018-09-26T15:01:02.937Z,19.10
2018-09-26T15:03:43.976Z,19.10
2018-09-26T15:06:24.987Z,19.00
2018-09-26T15:09:07.226Z,18.80
2018-09-26T15:11:48.129Z,18.80
2018-09-26T15:14:29.144Z,18.70
2018-09-26T15:17:10.076Z,18.70
2018-09-26T15:19:50.991Z,18.60
2018-09-26T15:22:32.068Z,18.50
2018-09-26T15:25:13.135Z,18.40
2018-09-26T15:27:54.029Z,18.30
2018-09-26T15:30:35.089Z,18.20
2018-09-26T15:33:15.925Z,18.10
2018-09-26T15:35:56.808Z,18.00
2018-09-26T15:38:38.727Z,17.90
2018-09-26T15:41:19.605Z,17.90
2018-09-26T15:44:01.095Z,17.90
2018-09-26T15:46:42.495Z,17.80
2018-09-26T15:49:23.500Z,17.60
2018-09-26T15:52:04.928Z,17.50
2018-09-26T15:54:45.915Z,17.40
2018-09-26T15:57:26.749Z,17.20
2018-09-26T16:00:08.685Z,17.10
2018-09-26T16:02:49.676Z,17.00
2018-09-26T16:05:30.793Z,16.90
2018-09-26T16:08:12.354Z,16.90
2018-09-26T16:10:53.090Z,15.20
2018-09-26T16:13:34.019Z,16.70
2018-09-26T16:16:15.021Z,16.50
2018-09-26T16:18:55.737Z,16.40
2018-09-26T16:21:36.556Z,16.30
2018-09-26T16:24:17.172Z,16.20
2018-09-26T16:26:57.910Z,16.10
2018-09-26T16:29:38.468Z,16.10
2018-09-26T16:32:19.471Z,16.00
2018-09-26T16:35:00.336Z,15.90
2018-09-26T16:37:41.098Z,15.70
2018-09-26T16:40:22.282Z,15.60
2018-09-26T16:43:04.394Z,15.50
2018-09-26T16:45:45.748Z,15.30
2018-09-26T16:48:26.931Z,15.20
2018-09-26T16:51:07.506Z,15.10
2018-09-26T16:53:48.427Z,15.00
2018-09-26T16:56:29.422Z,14.90
2018-09-26T16:59:10.787Z,14.70
2018-09-26T17:01:51.589Z,14.60
2018-09-26T17:04:32.416Z,14.50
2018-09-26T17:07:12.890Z,14.50
2018-09-26T17:09:54.110Z,14.50
2018-09-26T17:12:34.696Z,14.40
2018-09-26T17:15:24.670Z,14.40
2018-09-26T17:18:05.451Z,14.30
2018-09-26T17:20:46.656Z,14.20
2018-09-26T17:23:27.742Z,14.20
2018-09-26T17:26:10.036Z,14.10
2018-09-26T17:28:51.449Z,14.00
2018-09-26T17:31:32.745Z,13.90
2018-09-26T17:34:14.150Z,13.90
2018-09-26T17:36:55.864Z,13.80
2018-09-26T17:39:37.202Z,13.70
2018-09-26T17:42:19.569Z,13.60
2018-09-26T17:45:01.219Z,13.50
2018-09-26T17:47:44.586Z,13.50
2018-09-26T17:50:25.136Z,13.40
2018-09-26T17:53:06.302Z,13.30
2018-09-26T17:55:47.076Z,13.30
2018-09-26T17:58:28.069Z,13.20
2018-09-26T18:01:09.041Z,13.20
2018-09-26T18:03:50.032Z,13.10
2018-09-26T18:06:31.328Z,13.00
2018-09-26T18:09:13.942Z,12.90
2018-09-26T18:11:55.334Z,12.80
2018-09-26T18:14:36.633Z,12.80
2018-09-26T18:17:17.865Z,12.80
2018-09-26T18:19:59.624Z,12.70
2018-09-26T18:22:40.440Z,12.70
2018-09-26T18:25:22.053Z,12.70
2018-09-26T18:28:02.808Z,12.80
2018-09-26T18:30:43.818Z,12.70
2018-09-26T18:33:24.757Z,12.70
2018-09-26T18:36:06.304Z,12.70
2018-09-26T18:38:47.436Z,12.60
2018-09-26T18:41:28.883Z,12.60
2018-09-26T18:44:10.096Z,12.50
2018-09-26T18:46:51.341Z,12.40
2018-09-26T18:49:32.674Z,12.40
2018-09-26T18:52:13.631Z,12.40
2018-09-26T18:54:54.404Z,12.30
2018-09-26T18:57:37.261Z,12.20
2018-09-26T19:00:19.161Z,12.20
2018-09-26T19:02:59.920Z,12.20
2018-09-26T19:05:40.966Z,12.20
2018-09-26T19:08:21.658Z,12.20
2018-09-26T19:11:03.041Z,12.20
2018-09-26T19:13:44.058Z,12.20
2018-09-26T19:16:24.718Z,12.10
2018-09-26T19:19:06.821Z,12.10
2018-09-26T19:21:47.896Z,12.00
2018-09-26T19:24:28.689Z,12.00
2018-09-26T19:27:12.633Z,11.90
2018-09-26T19:29:53.889Z,11.90
2018-09-26T19:32:34.937Z,11.90
2018-09-26T19:35:16.213Z,11.80
2018-09-26T19:37:57.023Z,11.80
2018-09-26T19:40:38.513Z,11.70
2018-09-26T19:43:20.156Z,11.70
2018-09-26T19:46:00.962Z,11.70
2018-09-26T19:48:42.263Z,11.60
2018-09-26T19:51:23.079Z,11.50
2018-09-26T19:54:03.993Z,11.40
2018-09-26T19:56:45.195Z,11.40
2018-09-26T19:59:26.351Z,11.40
2018-09-26T20:02:08.045Z,11.40
2018-09-26T20:04:49.070Z,11.40
2018-09-26T20:07:29.926Z,11.30
2018-09-26T20:10:12.560Z,11.30
2018-09-26T20:12:54.083Z,11.20
2018-09-26T20:15:35.545Z,11.30
2018-09-26T20:18:16.950Z,11.20
2018-09-26T20:20:57.694Z,11.10
2018-09-26T20:23:38.899Z,11.20
2018-09-26T20:26:19.817Z,11.10
2018-09-26T20:29:00.605Z,11.00
2018-09-26T20:31:41.620Z,11.00
2018-09-26T20:34:22.433Z,11.00
2018-09-26T20:37:04.802Z,10.90
2018-09-26T20:39:46.081Z,10.80
2018-09-26T20:42:27.220Z,10.80
2018-09-26T20:45:08.543Z,10.70
2018-09-26T20:47:49.848Z,10.70
2018-09-26T20:50:30.789Z,10.70
2018-09-26T20:53:11.871Z,10.70
2018-09-26T20:55:53.109Z,10.70
2018-09-26T20:58:34.738Z,10.70
2018-09-26T21:01:15.562Z,10.80
2018-09-26T21:03:56.436Z,11.00
2018-09-26T21:06:37.954Z,11.20
2018-09-26T21:09:18.800Z,11.20
2018-09-26T21:12:00.338Z,11.30
2018-09-26T21:14:41.265Z,11.40
2018-09-26T21:17:22.374Z,11.50
2018-09-26T21:20:03.772Z,11.60
2018-09-26T21:22:44.840Z,11.80
2018-09-26T21:25:25.626Z,11.90
2018-09-26T21:28:06.677Z,12.00
2018-09-26T21:30:48.187Z,12.00
2018-09-26T21:33:29.573Z,12.00
2018-09-26T21:36:11.127Z,12.00
2018-09-26T21:38:52.528Z,12.00
2018-09-26T21:41:33.283Z,12.20
2018-09-26T21:44:14.258Z,13.20
2018-09-26T21:46:55.034Z,12.20
2018-09-26T21:49:35.583Z,12.30
2018-09-26T21:52:16.392Z,12.40
2018-09-26T21:54:58.047Z,12.40
2018-09-26T21:57:38.917Z,12.40
2018-09-26T22:00:19.923Z,12.40
2018-09-26T22:03:00.973Z,12.50
2018-09-26T22:05:41.774Z,12.50
2018-09-26T22:08:22.970Z,12.60
2018-09-26T22:11:04.184Z,12.60
2018-09-26T22:13:45.162Z,12.70
2018-09-26T22:16:26.625Z,12.80
2018-09-26T22:19:08.033Z,12.90
2018-09-26T22:21:49.446Z,13.00
2018-09-26T22:24:30.309Z,13.00
2018-09-26T22:27:11.331Z,13.10
2018-09-26T22:29:52.295Z,13.30
2018-09-26T22:32:32.789Z,13.50
2018-09-26T22:35:13.795Z,13.80
2018-09-26T22:37:54.268Z,14.00
2018-09-26T22:40:35.945Z,15.60
2018-09-26T22:43:16.541Z,14.50
2018-09-26T22:45:57.821Z,14.70
2018-09-26T22:48:38.264Z,14.90
2018-09-26T22:51:19.357Z,15.00
2018-09-26T22:54:00.294Z,15.10
2018-09-26T22:56:41.675Z,15.10
2018-09-26T22:59:22.590Z,15.10
2018-09-26T23:02:02.970Z,15.20
2018-09-26T23:04:43.896Z,15.30
2018-09-26T23:07:24.856Z,15.40
2018-09-26T23:10:06.489Z,15.40
2018-09-26T23:12:47.056Z,15.40
2018-09-26T23:15:28.030Z,15.40
2018-09-26T23:18:08.635Z,15.40
2018-09-26T23:20:49.323Z,15.30
2018-09-26T23:23:30.099Z,15.30
2018-09-26T23:26:10.721Z,15.30
2018-09-26T23:28:51.245Z,15.30
2018-09-26T23:31:32.326Z,15.30
2018-09-26T23:34:13.088Z,15.30
2018-09-26T23:36:54.239Z,15.30
2018-09-26T23:39:34.959Z,15.20
2018-09-26T23:42:15.734Z,15.10
2018-09-26T23:44:56.127Z,15.10
2018-09-26T23:47:36.799Z,15.00
2018-09-26T23:50:17.601Z,15.00
2018-09-26T23:52:58.554Z,15.00
2018-09-26T23:55:38.966Z,14.90
2018-09-26T23:58:19.804Z,14.90
